Daffan, Texas
Current Conditions -  °F | °C
As of 9:35 PM on Friday 19 Dec 2014 (Local Time) from KEDC Reporting Station
Overcast Overcast  
Wind Chill:   Ceiling: 800
Heat Index:   Visibility: 8mi
Dew Point:   Wind: 12mph
Humidity: 93%   Direction: 360°N
Pressure: 30.19"   Gusts: NA
Location:  30.352°N, 97.5205°W
Report Text: KEDC 200335Z AUTO 36010KT 8SM BKN008 OVC014 09/08 A3019 RMK AO2
Loading
Personal Weather Stations






























Interactive Weather Map New forecast layout! Learn more

10-Day Weather Forecast

Advertisements
Track Severe Weather on mobile